Time,TemperatureF,DewpointF,PressureIn,WindDirection,WindDirectionDegrees,WindSpeedMPH,WindSpeedGustMPH,Humidity,HourlyPrecipIn,Conditions,Clouds,dailyrainin,SoftwareType,DateUTC
2013-01-04 00:01:00,27.5,19.4,30.11,WSW,248,0.6,0.6,71,0.00,,OVC,0.00,VWS V14.00,2013-01-04 05:01:00,
2013-01-04 00:03:00,27.6,19.4,30.10,SW,225,0.6,0.6,71,0.00,,OVC,0.00,VWS V14.00,2013-01-04 05:03:00,
2013-01-04 00:04:00,27.6,19.4,30.11,WSW,248,0.0,0.0,71,0.00,,OVC,0.00,VWS V14.00,2013-01-04 05:04:00,
2013-01-04 00:09:00,28.0,19.8,30.10,SW,225,1.5,1.5,71,0.00,,OVC,0.00,VWS V14.00,2013-01-04 05:09:00,
2013-01-04 00:14:00,28.2,20.0,30.10,WSW,248,0.0,0.0,71,0.00,,OVC,0.00,VWS V14.00,2013-01-04 05:14:00,
2013-01-04 00:19:00,28.5,20.0,30.10,West,270,0.0,0.0,70,0.00,,OVC,0.00,VWS V14.00,2013-01-04 05:19:00,
2013-01-04 00:24:00,28.5,20.0,30.10,WSW,248,0.0,0.0,70,0.00,,OVC,0.00,VWS V14.00,2013-01-04 05:24:00,
2013-01-04 00:29:00,28.9,20.4,30.10,WNW,292,0.0,0.0,70,0.00,,OVC,0.00,VWS V14.00,2013-01-04 05:29:00,
2013-01-04 00:34:00,29.1,20.5,30.09,SW,225,0.0,0.0,70,0.00,,OVC,0.00,VWS V14.00,2013-01-04 05:34:00,
2013-01-04 00:39:00,29.1,20.5,30.09,WSW,248,0.0,0.0,70,0.00,,OVC,0.00,VWS V14.00,2013-01-04 05:39:00,
2013-01-04 00:44:00,29.1,20.5,30.09,SW,225,0.6,0.6,70,0.00,,OVC,0.00,VWS V14.00,2013-01-04 05:44:00,
2013-01-04 00:49:00,29.1,20.5,30.09,WSW,248,0.0,0.0,70,0.00,,OVC,0.00,VWS V14.00,2013-01-04 05:49:00,
2013-01-04 00:54:00,29.1,20.5,30.08,SSW,202,0.0,0.0,70,0.00,,OVC,0.00,VWS V14.00,2013-01-04 05:54:00,
2013-01-04 00:59:00,28.9,20.4,30.08,WSW,248,1.1,1.1,70,0.00,,OVC,0.00,VWS V14.00,2013-01-04 05:59:00,
2013-01-04 01:04:00,28.7,20.2,30.08,SW,225,0.0,0.0,70,0.00,,OVC,0.00,VWS V14.00,2013-01-04 06:04:00,
2013-01-04 01:09:00,28.7,20.2,30.08,WSW,248,0.0,0.0,70,0.00,,OVC,0.00,VWS V14.00,2013-01-04 06:09:00,
2013-01-04 01:14:00,28.7,20.2,30.08,SW,225,1.1,1.1,70,0.00,,OVC,0.00,VWS V14.00,2013-01-04 06:14:00,
2013-01-04 01:19:00,28.5,20.0,30.08,West,270,0.0,0.0,70,0.00,,OVC,0.00,VWS V14.00,2013-01-04 06:19:00,
2013-01-04 01:24:00,28.7,20.2,30.08,WSW,248,0.0,0.0,70,0.00,,OVC,0.00,VWS V14.00,2013-01-04 06:24:00,
2013-01-04 01:29:00,28.7,20.2,30.08,SW,225,2.6,2.6,70,0.00,,OVC,0.00,VWS V14.00,2013-01-04 06:29:00,
2013-01-04 01:34:00,28.9,20.0,30.08,West,270,1.5,1.5,69,0.00,,OVC,0.00,VWS V14.00,2013-01-04 06:34:00,
2013-01-04 01:39:00,28.7,19.8,30.09,WSW,248,0.8,0.8,69,0.00,,OVC,0.00,VWS V14.00,2013-01-04 06:39:00,
2013-01-04 01:44:00,28.7,19.8,30.09,SW,225,1.5,1.5,69,0.00,,OVC,0.00,VWS V14.00,2013-01-04 06:44:00,
2013-01-04 01:49:00,28.5,20.0,30.09,WSW,248,0.0,0.0,70,0.00,,OVC,0.00,VWS V14.00,2013-01-04 06:49:00,
2013-01-04 01:54:00,28.5,20.0,30.09,North,0,0.0,0.0,70,0.00,,OVC,0.00,VWS V14.00,2013-01-04 06:54:00,
2013-01-04 01:59:00,28.5,20.0,30.09,WSW,248,0.0,0.0,70,0.00,,OVC,0.00,VWS V14.00,2013-01-04 06:59:00,
2013-01-04 02:04:00,28.2,19.7,30.09,WSW,248,0.0,0.0,70,0.00,,OVC,0.00,VWS V14.00,2013-01-04 07:04:00,
2013-01-04 02:09:00,28.2,19.7,30.09,WSW,248,0.0,0.0,70,0.00,,OVC,0.00,VWS V14.00,2013-01-04 07:09:00,
2013-01-04 02:14:00,28.2,19.7,30.09,WSW,248,0.0,0.0,70,0.00,,OVC,0.00,VWS V14.00,2013-01-04 07:14:00,
2013-01-04 02:19:00,28.2,19.7,30.09,SW,225,0.0,0.0,70,0.00,,OVC,0.00,VWS V14.00,2013-01-04 07:19:00,
2013-01-04 02:24:00,28.2,19.7,30.09,SW,225,0.0,0.0,70,0.00,,OVC,0.00,VWS V14.00,2013-01-04 07:24:00,
2013-01-04 02:29:00,28.0,19.5,30.09,West,270,0.0,0.0,70,0.00,,OVC,0.00,VWS V14.00,2013-01-04 07:29:00,
2013-01-04 02:34:00,28.0,19.8,30.09,WSW,248,0.0,0.0,71,0.00,,OVC,0.00,VWS V14.00,2013-01-04 07:34:00,
2013-01-04 02:39:00,28.0,19.5,30.09,WSW,248,0.0,0.0,70,0.00,,OVC,0.00,VWS V14.00,2013-01-04 07:39:00,
2013-01-04 02:44:00,28.0,19.8,30.09,WSW,248,1.1,1.1,71,0.00,,OVC,0.00,VWS V14.00,2013-01-04 07:44:00,
2013-01-04 02:49:00,28.0,19.8,30.09,SSW,202,0.0,0.0,71,0.00,,OVC,0.00,VWS V14.00,2013-01-04 07:49:00,
2013-01-04 02:54:00,28.0,19.8,30.09,SW,225,0.0,0.0,71,0.00,,OVC,0.00,VWS V14.00,2013-01-04 07:54:00,
2013-01-04 02:59:00,28.0,19.8,30.09,WSW,248,1.1,1.1,71,0.00,,OVC,0.00,VWS V14.00,2013-01-04 07:59:00,
2013-01-04 03:04:00,28.0,19.8,30.09,WSW,248,0.0,0.0,71,0.00,,OVC,0.00,VWS V14.00,2013-01-04 08:04:00,
2013-01-04 03:09:00,27.8,19.6,30.09,SW,225,0.0,0.0,71,0.00,,OVC,0.00,VWS V14.00,2013-01-04 08:09:00,
2013-01-04 03:14:00,27.8,19.6,30.09,West,270,0.0,0.0,71,0.00,,OVC,0.00,VWS V14.00,2013-01-04 08:14:00,
2013-01-04 03:19:00,27.8,19.6,30.09,SW,225,0.0,0.0,71,0.00,,OVC,0.00,VWS V14.00,2013-01-04 08:19:00,
2013-01-04 03:24:00,28.0,19.8,30.09,WSW,248,1.1,1.1,71,0.00,,OVC,0.00,VWS V14.00,2013-01-04 08:24:00,
2013-01-04 03:29:00,28.0,19.8,30.09,WSW,248,2.4,2.4,71,0.00,,OVC,0.00,VWS V14.00,2013-01-04 08:29:00,
2013-01-04 03:34:00,28.0,19.8,30.09,SW,225,0.0,0.0,71,0.00,,OVC,0.00,VWS V14.00,2013-01-04 08:34:00,
2013-01-04 03:39:00,28.0,19.8,30.09,SW,225,0.0,0.0,71,0.00,,OVC,0.00,VWS V14.00,2013-01-04 08:39:00,
2013-01-04 03:44:00,28.0,19.8,30.09,West,270,1.3,1.3,71,0.00,,OVC,0.00,VWS V14.00,2013-01-04 08:44:00,
2013-01-04 03:49:00,28.0,19.8,30.09,SW,225,0.0,0.0,71,0.00,,OVC,0.00,VWS V14.00,2013-01-04 08:49:00,
2013-01-04 03:54:00,28.2,20.0,30.09,SW,225,0.0,0.0,71,0.00,,OVC,0.00,VWS V14.00,2013-01-04 08:54:00,
2013-01-04 03:59:00,28.2,20.0,30.09,SW,225,1.3,1.3,71,0.00,,OVC,0.00,VWS V14.00,2013-01-04 08:59:00,
2013-01-04 04:04:00,28.2,20.0,30.09,WSW,248,0.8,0.8,71,0.00,,OVC,0.00,VWS V14.00,2013-01-04 09:04:00,
2013-01-04 04:09:00,28.2,20.0,30.09,WNW,292,0.0,0.0,71,0.00,,OVC,0.00,VWS V14.00,2013-01-04 09:09:00,
2013-01-04 04:14:00,28.2,20.0,30.09,SW,225,0.0,0.0,71,0.00,,OVC,0.00,VWS V14.00,2013-01-04 09:14:00,
2013-01-04 04:19:00,28.2,20.0,30.09,SW,225,1.5,1.5,71,0.00,,OVC,0.00,VWS V14.00,2013-01-04 09:19:00,
2013-01-04 04:24:00,28.2,20.0,30.09,SSW,202,2.9,2.9,71,0.00,,OVC,0.00,VWS V14.00,2013-01-04 09:24:00,
2013-01-04 04:29:00,28.2,20.0,30.09,WSW,248,0.0,0.0,71,0.00,,OVC,0.00,VWS V14.00,2013-01-04 09:29:00,
2013-01-04 04:34:00,28.0,19.8,30.09,WSW,248,0.0,0.0,71,0.00,,OVC,0.00,VWS V14.00,2013-01-04 09:34:00,
2013-01-04 04:39:00,28.2,20.0,30.09,SW,225,2.6,2.6,71,0.00,,OVC,0.00,VWS V14.00,2013-01-04 09:39:00,
2013-01-04 04:44:00,28.2,20.0,30.09,West,270,0.0,0.0,71,0.00,,OVC,0.00,VWS V14.00,2013-01-04 09:44:00,
2013-01-04 04:49:00,28.2,20.0,30.09,West,270,0.0,0.0,71,0.00,,OVC,0.00,VWS V14.00,2013-01-04 09:49:00,
2013-01-04 04:54:00,28.2,20.0,30.09,SW,225,0.0,0.0,71,0.00,,OVC,0.00,VWS V14.00,2013-01-04 09:54:00,
2013-01-04 04:59:00,28.2,20.0,30.09,WSW,248,0.0,0.0,71,0.00,,OVC,0.00,VWS V14.00,2013-01-04 09:59:00,
2013-01-04 05:04:00,28.2,20.0,30.09,WSW,248,0.0,0.0,71,0.00,,OVC,0.00,VWS V14.00,2013-01-04 10:04:00,
2013-01-04 05:09:00,28.2,20.0,30.10,WSW,248,0.0,0.0,71,0.00,,OVC,0.00,VWS V14.00,2013-01-04 10:09:00,
2013-01-04 05:14:00,28.2,20.0,30.10,SW,225,0.0,0.6,71,0.00,,OVC,0.00,VWS V14.00,2013-01-04 10:14:00,
2013-01-04 05:19:00,28.2,20.0,30.10,West,270,0.0,0.0,71,0.00,,OVC,0.00,VWS V14.00,2013-01-04 10:19:00,
2013-01-04 05:24:00,28.5,20.3,30.10,WSW,248,0.0,0.0,71,0.00,,OVC,0.00,VWS V14.00,2013-01-04 10:24:00,
2013-01-04 05:29:00,28.9,20.7,30.11,WSW,248,0.0,0.0,71,0.00,,OVC,0.00,VWS V14.00,2013-01-04 10:29:00,
2013-01-04 05:34:00,29.3,20.7,30.11,WSW,248,0.0,0.0,70,0.00,,OVC,0.00,VWS V14.00,2013-01-04 10:34:00,
2013-01-04 05:39:00,29.4,20.8,30.11,SW,225,0.0,0.0,70,0.00,,OVC,0.00,VWS V14.00,2013-01-04 10:39:00,
2013-01-04 05:44:00,29.8,21.6,30.11,SW,225,0.0,0.0,71,0.00,,OVC,0.00,VWS V14.00,2013-01-04 10:44:00,
2013-01-04 05:49:00,30.0,21.4,30.11,SW,225,0.0,0.0,70,0.00,,OVC,0.00,VWS V14.00,2013-01-04 10:49:00,
2013-01-04 05:54:00,30.3,21.7,30.11,SW,225,0.0,0.0,70,0.00,,OVC,0.00,VWS V14.00,2013-01-04 10:54:00,
2013-01-04 05:59:00,30.3,21.7,30.11,SW,225,0.0,0.0,70,0.00,,OVC,0.00,VWS V14.00,2013-01-04 10:59:00,
2013-01-04 06:04:00,30.5,21.9,30.11,West,270,1.3,1.3,70,0.00,,OVC,0.00,VWS V14.00,2013-01-04 11:04:00,
2013-01-04 06:09:00,30.7,22.1,30.11,WSW,248,0.0,0.0,70,0.00,,OVC,0.00,VWS V14.00,2013-01-04 11:09:00,
2013-01-04 06:14:00,30.7,21.8,30.11,WSW,248,0.0,0.0,69,0.00,,OVC,0.00,VWS V14.00,2013-01-04 11:14:00,
2013-01-04 06:19:00,30.9,21.9,30.11,WSW,248,0.0,0.0,69,0.00,,OVC,0.00,VWS V14.00,2013-01-04 11:19:00,
2013-01-04 06:24:00,31.1,22.1,30.11,WSW,248,0.0,0.0,69,0.00,,OVC,0.00,VWS V14.00,2013-01-04 11:24:00,
2013-01-04 06:29:00,31.1,22.1,30.11,SW,225,0.0,0.0,69,0.00,,OVC,0.00,VWS V14.00,2013-01-04 11:29:00,
2013-01-04 06:34:00,31.2,22.2,30.11,SW,225,0.2,0.2,69,0.00,,OVC,0.00,VWS V14.00,2013-01-04 11:34:00,
2013-01-04 06:39:00,31.2,22.2,30.11,SW,225,0.0,0.0,69,0.00,,OVC,0.00,VWS V14.00,2013-01-04 11:39:00,
2013-01-04 06:44:00,31.2,22.2,30.11,SW,225,2.9,2.9,69,0.00,,OVC,0.00,VWS V14.00,2013-01-04 11:44:00,
2013-01-04 06:49:00,31.2,21.9,30.11,SW,225,0.6,0.6,68,0.00,,OVC,0.00,VWS V14.00,2013-01-04 11:49:00,
2013-01-04 06:54:00,31.2,21.9,30.11,SW,225,0.0,0.0,68,0.00,,OVC,0.00,VWS V14.00,2013-01-04 11:54:00,
2013-01-04 06:59:00,31.2,21.9,30.11,WSW,248,0.0,0.0,68,0.00,,OVC,0.00,VWS V14.00,2013-01-04 11:59:00,
2013-01-04 07:04:00,31.2,21.9,30.11,SW,225,0.0,0.0,68,0.00,,OVC,0.00,VWS V14.00,2013-01-04 12:04:00,
2013-01-04 07:09:00,31.2,21.9,30.11,WSW,248,0.0,0.0,68,0.00,,OVC,0.00,VWS V14.00,2013-01-04 12:09:00,
2013-01-04 07:14:00,31.1,21.8,30.11,SW,225,0.0,0.0,68,0.00,,OVC,0.00,VWS V14.00,2013-01-04 12:14:00,
2013-01-04 07:19:00,30.7,21.4,30.11,WSW,248,0.0,0.0,68,0.00,,OVC,0.00,VWS V14.00,2013-01-04 12:19:00,
2013-01-04 07:24:00,30.5,21.6,30.11,SW,225,0.0,0.0,69,0.00,,OVC,0.00,VWS V14.00,2013-01-04 12:24:00,
2013-01-04 07:29:00,30.3,21.4,30.11,SW,225,2.0,2.0,69,0.00,,OVC,0.00,VWS V14.00,2013-01-04 12:29:00,
2013-01-04 07:34:00,30.2,21.3,30.12,SW,225,0.0,0.0,69,0.00,,OVC,0.00,VWS V14.00,2013-01-04 12:34:00,
2013-01-04 07:39:00,30.0,21.1,30.11,SW,225,0.0,0.0,69,0.00,,OVC,0.00,VWS V14.00,2013-01-04 12:39:00,
2013-01-04 07:44:00,30.0,21.4,30.11,SW,225,0.0,0.0,70,0.00,,OVC,0.00,VWS V14.00,2013-01-04 12:44:00,
2013-01-04 07:49:00,30.0,21.4,30.11,WSW,248,0.0,0.0,70,0.00,,OVC,0.00,VWS V14.00,2013-01-04 12:49:00,
2013-01-04 07:54:00,30.0,21.4,30.11,WSW,248,0.0,0.0,70,0.00,,OVC,0.00,VWS V14.00,2013-01-04 12:54:00,
2013-01-04 07:59:00,30.0,21.4,30.11,SW,225,3.3,3.3,70,0.00,,OVC,0.00,VWS V14.00,2013-01-04 12:59:00,
2013-01-04 08:04:00,30.2,21.6,30.11,SW,225,0.0,0.0,70,0.00,,OVC,0.00,VWS V14.00,2013-01-04 13:04:00,
2013-01-04 08:09:00,30.5,21.6,30.11,SW,225,0.0,0.0,69,0.00,,OVC,0.00,VWS V14.00,2013-01-04 13:09:00,
2013-01-04 08:14:00,31.1,22.1,30.11,SW,225,0.6,0.6,69,0.00,,OVC,0.00,VWS V14.00,2013-01-04 13:14:00,
2013-01-04 08:19:00,31.6,22.6,30.11,South,180,2.6,2.6,69,0.00,,OVC,0.00,VWS V14.00,2013-01-04 13:19:00,
2013-01-04 08:24:00,32.1,22.8,30.11,SSW,202,5.3,5.3,68,0.00,,OVC,0.00,VWS V14.00,2013-01-04 13:24:00,
2013-01-04 08:29:00,32.7,23.0,30.11,WSW,248,0.0,0.0,67,0.00,,OVC,0.00,VWS V14.00,2013-01-04 13:29:00,
2013-01-04 08:34:00,33.0,22.9,30.11,SW,225,1.3,1.3,66,0.00,,OVC,0.00,VWS V14.00,2013-01-04 13:34:00,
2013-01-04 08:39:00,33.6,23.5,30.11,WNW,292,0.0,0.0,66,0.00,,OVC,0.00,VWS V14.00,2013-01-04 13:39:00,
2013-01-04 08:44:00,34.1,23.6,30.11,SW,225,0.0,0.0,65,0.00,,OVC,0.00,VWS V14.00,2013-01-04 13:44:00,
2013-01-04 08:49:00,34.3,23.8,30.11,WSW,248,0.0,0.0,65,0.00,,OVC,0.00,VWS V14.00,2013-01-04 13:49:00,
2013-01-04 08:54:00,35.2,24.3,30.11,SSW,202,6.9,6.9,64,0.00,,OVC,0.00,VWS V14.00,2013-01-04 13:54:00,
2013-01-04 08:59:00,35.7,24.4,30.12,SW,225,0.8,0.8,63,0.00,,OVC,0.00,VWS V14.00,2013-01-04 13:59:00,
2013-01-04 09:04:00,36.3,24.5,30.11,WSW,248,1.5,1.5,62,0.00,,OVC,0.00,VWS V14.00,2013-01-04 14:04:00,
2013-01-04 09:09:00,37.0,25.2,30.12,WSW,248,0.0,0.0,62,0.00,,OVC,0.00,VWS V14.00,2013-01-04 14:09:00,
2013-01-04 09:14:00,37.5,25.3,30.12,SW,225,0.0,0.0,61,0.00,,OVC,0.00,VWS V14.00,2013-01-04 14:14:00,
2013-01-04 09:19:00,37.4,24.8,30.12,WSW,248,0.0,0.0,60,0.00,,OVC,0.00,VWS V14.00,2013-01-04 14:19:00,
2013-01-04 09:24:00,37.2,24.2,30.12,West,270,2.6,2.6,59,0.00,,OVC,0.00,VWS V14.00,2013-01-04 14:24:00,
2013-01-04 09:29:00,36.8,24.2,30.12,WSW,248,2.0,2.0,60,0.00,,OVC,0.00,VWS V14.00,2013-01-04 14:29:00,
2013-01-04 09:34:00,36.5,24.0,30.12,WNW,292,4.2,4.2,60,0.00,,OVC,0.00,VWS V14.00,2013-01-04 14:34:00,
2013-01-04 09:39:00,36.3,23.8,30.12,SW,225,0.0,0.0,60,0.00,,OVC,0.00,VWS V14.00,2013-01-04 14:39:00,
2013-01-04 09:44:00,36.3,23.8,30.12,WSW,248,0.0,0.0,60,0.00,,OVC,0.00,VWS V14.00,2013-01-04 14:44:00,
2013-01-04 09:49:00,36.3,23.8,30.12,SW,225,0.0,0.0,60,0.00,,OVC,0.00,VWS V14.00,2013-01-04 14:49:00,
2013-01-04 09:54:00,36.5,24.0,30.12,WSW,248,1.1,1.1,60,0.00,,OVC,0.00,VWS V14.00,2013-01-04 14:54:00,
2013-01-04 09:59:00,36.6,24.0,30.11,WSW,248,1.1,1.1,60,0.00,,OVC,0.00,VWS V14.00,2013-01-04 14:59:00,
2013-01-04 10:04:00,36.8,24.2,30.11,SSW,202,0.0,0.0,60,0.00,,OVC,0.00,VWS V14.00,2013-01-04 15:04:00,
2013-01-04 10:09:00,37.2,24.6,30.12,SSW,202,2.0,2.0,60,0.00,,OVC,0.00,VWS V14.00,2013-01-04 15:09:00,
2013-01-04 10:14:00,37.4,24.8,30.12,West,270,2.6,2.6,60,0.00,,OVC,0.00,VWS V14.00,2013-01-04 15:14:00,
2013-01-04 10:19:00,37.5,24.5,30.11,WSW,248,0.0,0.0,59,0.00,,OVC,0.00,VWS V14.00,2013-01-04 15:19:00,
2013-01-04 10:24:00,37.7,24.7,30.11,SW,225,3.5,3.5,59,0.00,,OVC,0.00,VWS V14.00,2013-01-04 15:24:00,
2013-01-04 10:30:00,37.5,24.5,30.11,WSW,248,1.1,1.1,59,0.00,,OVC,0.00,VWS V14.00,2013-01-04 15:30:00,
2013-01-04 10:35:00,37.7,24.7,30.11,West,270,1.7,1.7,59,0.00,,OVC,0.00,VWS V14.00,2013-01-04 15:35:00,
2013-01-04 10:40:00,37.9,24.9,30.11,West,270,6.0,6.0,59,0.00,,OVC,0.00,VWS V14.00,2013-01-04 15:40:00,
2013-01-04 10:45:00,37.9,24.9,30.10,West,270,0.0,0.0,59,0.00,,OVC,0.00,VWS V14.00,2013-01-04 15:45:00,
2013-01-04 10:50:00,38.1,24.6,30.10,WSW,248,0.0,0.0,58,0.00,,OVC,0.00,VWS V14.00,2013-01-04 15:50:00,
2013-01-04 10:55:00,37.9,24.5,30.09,West,270,0.0,0.0,58,0.00,,OVC,0.00,VWS V14.00,2013-01-04 15:55:00,
2013-01-04 11:00:00,37.9,24.5,30.09,NNE,22,3.8,3.8,58,0.00,,OVC,0.00,VWS V14.00,2013-01-04 16:00:00,
2013-01-04 11:04:00,37.9,24.5,30.08,SW,225,0.0,0.0,58,0.00,,OVC,0.00,VWS V14.00,2013-01-04 16:04:00,
2013-01-04 11:09:00,37.9,24.5,30.09,West,270,0.8,0.8,58,0.00,,OVC,0.00,VWS V14.00,2013-01-04 16:09:00,
2013-01-04 11:14:00,38.4,24.5,30.08,West,270,2.4,2.4,57,0.00,,OVC,0.00,VWS V14.00,2013-01-04 16:14:00,
2013-01-04 11:19:00,38.6,24.7,30.08,WNW,292,3.5,3.5,57,0.00,,OVC,0.00,VWS V14.00,2013-01-04 16:19:00,
2013-01-04 11:24:00,38.8,24.5,30.08,West,270,0.0,0.0,56,0.00,,OVC,0.00,VWS V14.00,2013-01-04 16:24:00,
2013-01-04 11:29:00,39.0,25.1,30.07,SW,225,0.0,0.0,57,0.00,,OVC,0.00,VWS V14.00,2013-01-04 16:29:00,
2013-01-04 11:34:00,39.3,24.9,30.07,SW,225,0.0,0.0,56,0.00,,OVC,0.00,VWS V14.00,2013-01-04 16:34:00,
2013-01-04 11:39:00,39.3,24.9,30.06,WNW,292,1.3,1.3,56,0.00,,OVC,0.00,VWS V14.00,2013-01-04 16:39:00,
2013-01-04 11:45:00,39.3,24.5,30.06,West,270,2.4,2.4,55,0.00,,OVC,0.00,VWS V14.00,2013-01-04 16:45:00,
2013-01-04 11:50:00,39.3,24.5,30.06,West,270,1.3,1.3,55,0.00,,OVC,0.00,VWS V14.00,2013-01-04 16:50:00,
2013-01-04 11:55:00,39.3,24.5,30.05,WSW,248,0.0,0.0,55,0.00,,OVC,0.00,VWS V14.00,2013-01-04 16:55:00,
2013-01-04 12:00:00,39.5,24.7,30.05,West,270,4.4,4.4,55,0.00,,OVC,0.00,VWS V14.00,2013-01-04 17:00:00,
2013-01-04 12:05:00,39.7,24.4,30.05,SW,225,3.8,3.8,54,0.00,,OVC,0.00,VWS V14.00,2013-01-04 17:05:00,
2013-01-04 12:10:00,39.9,24.6,30.05,SW,225,0.0,0.0,54,0.00,,OVC,0.00,VWS V14.00,2013-01-04 17:10:00,
2013-01-04 12:15:00,40.1,24.8,30.04,NW,315,4.6,4.6,54,0.00,,OVC,0.00,VWS V14.00,2013-01-04 17:15:00,
2013-01-04 12:20:00,41.1,24.8,30.04,NW,315,0.0,0.0,52,0.00,,OVC,0.00,VWS V14.00,2013-01-04 17:20:00,
2013-01-04 12:25:00,40.8,24.1,30.04,West,270,0.4,0.4,51,0.00,,OVC,0.00,VWS V14.00,2013-01-04 17:25:00,
2013-01-04 12:30:00,40.2,23.5,30.04,WSW,248,0.0,0.0,51,0.00,,OVC,0.00,VWS V14.00,2013-01-04 17:30:00,
2013-01-04 12:35:00,40.6,23.9,30.03,WSW,248,2.4,2.4,51,0.00,,OVC,0.00,VWS V14.00,2013-01-04 17:35:00,
2013-01-04 12:40:00,40.6,24.4,30.03,WNW,292,0.0,0.0,52,0.00,,OVC,0.00,VWS V14.00,2013-01-04 17:40:00,
2013-01-04 12:45:00,40.2,24.0,30.03,West,270,4.4,4.4,52,0.00,,OVC,0.00,VWS V14.00,2013-01-04 17:45:00,
2013-01-04 12:50:00,40.8,24.1,30.03,SSW,202,3.8,3.8,51,0.00,,OVC,0.00,VWS V14.00,2013-01-04 17:50:00,
2013-01-04 12:55:00,41.0,24.3,30.02,West,270,0.0,0.0,51,0.00,,OVC,0.00,VWS V14.00,2013-01-04 17:55:00,
2013-01-04 13:00:00,41.1,23.9,30.02,WSW,248,0.0,0.0,50,0.00,,OVC,0.00,VWS V14.00,2013-01-04 18:00:00,
2013-01-04 13:05:00,40.8,24.1,30.02,NW,315,2.0,2.0,51,0.00,,OVC,0.00,VWS V14.00,2013-01-04 18:05:00,
2013-01-04 13:10:00,40.6,23.9,30.02,WSW,248,4.2,4.2,51,0.00,,OVC,0.00,VWS V14.00,2013-01-04 18:10:00,
2013-01-04 13:15:00,40.6,23.9,30.02,NW,315,3.5,3.5,51,0.00,,OVC,0.00,VWS V14.00,2013-01-04 18:15:00,
2013-01-04 13:20:00,40.8,24.1,30.02,West,270,6.4,6.4,51,0.00,,OVC,0.00,VWS V14.00,2013-01-04 18:20:00,
2013-01-04 13:25:00,40.8,24.1,30.01,WSW,248,2.6,2.6,51,0.00,,OVC,0.00,VWS V14.00,2013-01-04 18:25:00,
2013-01-04 13:30:00,40.2,24.0,30.00,West,270,3.3,3.3,52,0.00,,OVC,0.00,VWS V14.00,2013-01-04 18:30:00,
2013-01-04 13:35:00,40.6,24.4,30.01,ENE,68,1.7,1.7,52,0.00,,OVC,0.00,VWS V14.00,2013-01-04 18:35:00,
2013-01-04 13:40:00,40.4,23.7,30.00,WSW,248,4.6,4.6,51,0.00,,OVC,0.00,VWS V14.00,2013-01-04 18:40:00,
2013-01-04 13:45:00,40.4,24.2,30.00,WNW,292,0.0,0.0,52,0.00,,OVC,0.00,VWS V14.00,2013-01-04 18:45:00,
2013-01-04 13:50:00,40.1,23.9,30.00,SW,225,0.2,0.2,52,0.00,,OVC,0.00,VWS V14.00,2013-01-04 18:50:00,
2013-01-04 13:55:00,39.3,23.2,30.00,WNW,292,6.7,6.7,52,0.00,,OVC,0.00,VWS V14.00,2013-01-04 18:55:00,
2013-01-04 14:00:00,39.3,23.2,30.00,WSW,248,3.1,3.1,52,0.00,,OVC,0.00,VWS V14.00,2013-01-04 19:00:00,
2013-01-04 14:05:00,39.3,23.6,30.00,West,270,0.0,0.0,53,0.00,,OVC,0.00,VWS V14.00,2013-01-04 19:05:00,
2013-01-04 14:10:00,39.3,23.6,30.00,NW,315,3.1,3.1,53,0.00,,OVC,0.00,VWS V14.00,2013-01-04 19:10:00,
2013-01-04 14:15:00,39.0,23.3,29.99,WSW,248,4.6,4.6,53,0.00,,OVC,0.00,VWS V14.00,2013-01-04 19:15:00,
2013-01-04 14:20:00,39.2,23.5,29.99,WSW,248,2.2,2.2,53,0.00,,OVC,0.00,VWS V14.00,2013-01-04 19:20:00,
2013-01-04 14:25:00,39.0,23.3,29.99,West,270,1.3,1.3,53,0.00,,OVC,0.00,VWS V14.00,2013-01-04 19:25:00,
2013-01-04 14:30:00,39.0,23.3,29.99,WSW,248,2.0,2.0,53,0.00,,OVC,0.00,VWS V14.00,2013-01-04 19:30:00,
2013-01-04 14:35:00,39.2,23.5,29.99,WNW,292,3.5,3.5,53,0.00,,OVC,0.00,VWS V14.00,2013-01-04 19:35:00,
2013-01-04 14:40:00,39.0,23.3,29.99,South,180,4.0,4.0,53,0.00,,OVC,0.00,VWS V14.00,2013-01-04 19:40:00,
2013-01-04 14:45:00,38.8,23.1,29.99,WSW,248,2.9,2.9,53,0.00,,OVC,0.00,VWS V14.00,2013-01-04 19:45:00,
2013-01-04 14:50:00,38.8,23.6,29.99,WSW,248,5.3,5.3,54,0.00,,OVC,0.00,VWS V14.00,2013-01-04 19:50:00,
2013-01-04 14:55:00,38.8,23.1,29.99,West,270,3.8,3.8,53,0.00,,OVC,0.00,VWS V14.00,2013-01-04 19:55:00,
2013-01-04 15:00:00,38.8,23.6,29.99,SSW,202,2.9,2.9,54,0.00,,OVC,0.00,VWS V14.00,2013-01-04 20:00:00,
2013-01-04 15:05:00,38.4,22.8,29.98,SW,225,2.2,2.2,53,0.00,,OVC,0.00,VWS V14.00,2013-01-04 20:05:00,
2013-01-04 15:10:00,38.8,23.1,29.99,SW,225,4.6,4.6,53,0.00,,OVC,0.00,VWS V14.00,2013-01-04 20:10:00,
2013-01-04 15:15:00,38.4,23.2,29.98,SSW,202,2.9,2.9,54,0.00,,OVC,0.00,VWS V14.00,2013-01-04 20:15:00,
2013-01-04 15:20:00,38.4,22.8,29.99,West,270,1.5,1.5,53,0.00,,OVC,0.00,VWS V14.00,2013-01-04 20:20:00,
2013-01-04 15:25:00,38.3,23.1,29.99,SW,225,0.0,0.0,54,0.00,,OVC,0.00,VWS V14.00,2013-01-04 20:25:00,
2013-01-04 15:30:00,38.1,22.9,29.99,SW,225,4.6,4.6,54,0.00,,OVC,0.00,VWS V14.00,2013-01-04 20:30:00,
2013-01-04 15:35:00,38.1,22.9,29.99,SW,225,2.4,2.4,54,0.00,,OVC,0.00,VWS V14.00,2013-01-04 20:35:00,
2013-01-04 15:40:00,37.9,23.2,29.99,SW,225,1.5,1.5,55,0.00,,OVC,0.00,VWS V14.00,2013-01-04 20:40:00,
2013-01-04 15:45:00,37.9,22.8,29.99,West,270,0.0,0.0,54,0.00,,OVC,0.00,VWS V14.00,2013-01-04 20:45:00,
2013-01-04 15:50:00,37.7,23.0,29.99,West,270,0.4,0.4,55,0.00,,OVC,0.00,VWS V14.00,2013-01-04 20:50:00,
2013-01-04 15:55:00,37.5,22.8,29.98,WSW,248,2.2,2.2,55,0.00,,OVC,0.00,VWS V14.00,2013-01-04 20:55:00,
2013-01-04 16:00:00,37.5,22.8,29.99,WSW,248,1.3,1.3,55,0.00,,OVC,0.00,VWS V14.00,2013-01-04 21:00:00,
2013-01-04 16:05:00,37.2,22.5,29.99,West,270,4.0,4.0,55,0.00,,OVC,0.00,VWS V14.00,2013-01-04 21:05:00,
2013-01-04 16:10:00,37.0,22.8,29.99,WSW,248,0.0,0.0,56,0.00,,OVC,0.00,VWS V14.00,2013-01-04 21:10:00,
2013-01-04 16:15:00,37.0,22.8,29.99,WSW,248,4.4,4.4,56,0.00,,OVC,0.00,VWS V14.00,2013-01-04 21:15:00,
2013-01-04 16:20:00,36.6,22.4,29.99,WNW,292,5.3,5.3,56,0.00,,OVC,0.00,VWS V14.00,2013-01-04 21:20:00,
2013-01-04 16:25:00,36.6,22.4,29.98,SW,225,6.4,6.4,56,0.00,,OVC,0.00,VWS V14.00,2013-01-04 21:25:00,
2013-01-04 16:30:00,36.5,22.3,29.98,NW,315,0.0,0.0,56,0.00,,OVC,0.00,VWS V14.00,2013-01-04 21:30:00,
2013-01-04 16:35:00,36.1,22.4,29.99,West,270,6.2,6.2,57,0.00,,OVC,0.00,VWS V14.00,2013-01-04 21:35:00,
2013-01-04 16:40:00,35.9,22.2,29.98,SSW,202,0.0,0.0,57,0.00,,OVC,0.00,VWS V14.00,2013-01-04 21:40:00,
2013-01-04 16:45:00,35.7,22.0,29.99,WSW,248,0.0,0.0,57,0.00,,OVC,0.00,VWS V14.00,2013-01-04 21:45:00,
2013-01-04 16:50:00,35.4,22.1,29.98,SW,225,0.0,0.0,58,0.00,,OVC,0.00,VWS V14.00,2013-01-04 21:50:00,
2013-01-04 16:55:00,35.4,22.1,29.99,West,270,0.0,0.0,58,0.00,,OVC,0.00,VWS V14.00,2013-01-04 21:55:00,
2013-01-04 17:00:00,35.4,22.1,29.98,SW,225,5.5,5.5,58,0.00,,OVC,0.00,VWS V14.00,2013-01-04 22:00:00,
2013-01-04 17:05:00,35.2,21.9,29.98,WSW,248,2.6,2.6,58,0.00,,OVC,0.00,VWS V14.00,2013-01-04 22:05:00,
2013-01-04 17:10:00,35.0,21.7,29.98,SW,225,0.0,0.0,58,0.00,,OVC,0.00,VWS V14.00,2013-01-04 22:10:00,
2013-01-04 17:15:00,34.8,22.0,29.98,WNW,292,0.0,0.0,59,0.00,,OVC,0.00,VWS V14.00,2013-01-04 22:15:00,
2013-01-04 17:20:00,34.8,22.0,29.99,West,270,0.0,0.0,59,0.00,,OVC,0.00,VWS V14.00,2013-01-04 22:20:00,
2013-01-04 17:25:00,34.7,21.9,29.99,West,270,1.5,1.5,59,0.00,,OVC,0.00,VWS V14.00,2013-01-04 22:25:00,
2013-01-04 17:30:00,34.3,21.5,29.99,NW,315,0.0,0.0,59,0.00,,OVC,0.00,VWS V14.00,2013-01-04 22:30:00,
2013-01-04 17:35:00,34.3,21.9,29.99,West,270,2.2,2.2,60,0.00,,OVC,0.00,VWS V14.00,2013-01-04 22:35:00,
2013-01-04 17:40:00,34.3,21.9,29.99,SSW,202,0.8,0.8,60,0.00,,OVC,0.00,VWS V14.00,2013-01-04 22:40:00,
2013-01-04 17:45:00,34.3,21.9,29.99,WSW,248,0.0,0.0,60,0.00,,OVC,0.00,VWS V14.00,2013-01-04 22:45:00,
2013-01-04 17:50:00,34.3,21.9,29.99,SW,225,0.0,0.0,60,0.00,,OVC,0.00,VWS V14.00,2013-01-04 22:50:00,
2013-01-04 17:55:00,34.3,21.9,29.99,WSW,248,0.0,0.0,60,0.00,,OVC,0.00,VWS V14.00,2013-01-04 22:55:00,
2013-01-04 18:00:00,34.3,21.9,29.99,WSW,248,0.0,0.0,60,0.00,,OVC,0.00,VWS V14.00,2013-01-04 23:00:00,
2013-01-04 18:05:00,34.3,21.9,29.99,SW,225,0.0,0.0,60,0.00,,OVC,0.00,VWS V14.00,2013-01-04 23:05:00,
2013-01-04 18:10:00,34.3,21.9,30.00,WNW,292,0.0,0.0,60,0.00,,OVC,0.00,VWS V14.00,2013-01-04 23:10:00,
2013-01-04 18:15:00,34.3,22.3,30.00,WSW,248,3.1,3.1,61,0.00,,OVC,0.00,VWS V14.00,2013-01-04 23:15:00,
2013-01-04 18:20:00,34.3,22.3,30.00,SW,225,1.3,1.3,61,0.00,,OVC,0.00,VWS V14.00,2013-01-04 23:20:00,
2013-01-04 18:25:00,34.3,22.3,30.00,WNW,292,0.0,0.0,61,0.00,,OVC,0.00,VWS V14.00,2013-01-04 23:25:00,
2013-01-04 18:30:00,34.3,22.3,30.00,SW,225,0.0,0.0,61,0.00,,OVC,0.00,VWS V14.00,2013-01-04 23:30:00,
2013-01-04 18:35:00,34.3,22.3,30.00,WSW,248,4.0,4.0,61,0.00,,OVC,0.00,VWS V14.00,2013-01-04 23:35:00,
2013-01-04 18:40:00,34.1,22.1,30.00,WSW,248,0.0,0.0,61,0.00,,OVC,0.00,VWS V14.00,2013-01-04 23:40:00,
2013-01-04 18:45:00,34.1,22.1,30.00,WSW,248,0.0,0.0,61,0.00,,OVC,0.00,VWS V14.00,2013-01-04 23:45:00,
2013-01-04 18:50:00,34.1,22.1,30.00,West,270,1.5,1.5,61,0.00,,OVC,0.00,VWS V14.00,2013-01-04 23:50:00,
2013-01-04 18:55:00,34.1,22.1,30.00,SSW,202,0.0,0.0,61,0.00,,OVC,0.00,VWS V14.00,2013-01-04 23:55:00,
2013-01-04 19:00:00,34.1,22.1,30.00,West,270,0.0,0.0,61,0.00,,OVC,0.00,VWS V14.00,2013-01-05 00:00:00,
2013-01-04 19:05:00,34.3,22.3,30.00,SW,225,1.1,1.1,61,0.00,,OVC,0.00,VWS V14.00,2013-01-05 00:05:00,
2013-01-04 19:10:00,34.3,22.3,30.00,WSW,248,1.5,1.5,61,0.00,,OVC,0.00,VWS V14.00,2013-01-05 00:10:00,
2013-01-04 19:15:00,34.3,22.6,30.00,WSW,248,1.7,1.7,62,0.00,,OVC,0.00,VWS V14.00,2013-01-05 00:15:00,
2013-01-04 19:20:00,34.3,22.6,30.00,West,270,0.0,0.0,62,0.00,,OVC,0.00,VWS V14.00,2013-01-05 00:20:00,
2013-01-04 19:25:00,34.3,22.6,30.00,SW,225,0.0,0.0,62,0.00,,OVC,0.00,VWS V14.00,2013-01-05 00:25:00,
2013-01-04 19:30:00,34.3,22.6,30.00,SW,225,5.8,5.8,62,0.00,,OVC,0.00,VWS V14.00,2013-01-05 00:30:00,
2013-01-04 19:35:00,34.3,22.6,30.00,WNW,292,0.0,0.0,62,0.00,,OVC,0.00,VWS V14.00,2013-01-05 00:35:00,
2013-01-04 19:41:00,34.3,22.6,30.00,West,270,0.8,0.8,62,0.00,,OVC,0.00,VWS V14.00,2013-01-05 00:41:00,
2013-01-04 19:46:00,34.3,22.6,30.00,WSW,248,1.5,1.5,62,0.00,,OVC,0.00,VWS V14.00,2013-01-05 00:46:00,
2013-01-04 19:51:00,34.3,22.6,30.00,WSW,248,0.0,0.0,62,0.00,,OVC,0.00,VWS V14.00,2013-01-05 00:51:00,
2013-01-04 19:56:00,34.3,22.6,30.00,West,270,1.3,1.3,62,0.00,,OVC,0.00,VWS V14.00,2013-01-05 00:56:00,
2013-01-04 20:01:00,34.3,22.6,30.00,WSW,248,0.8,0.8,62,0.00,,OVC,0.00,VWS V14.00,2013-01-05 01:01:00,
2013-01-04 20:06:00,34.3,22.6,30.00,West,270,2.0,2.0,62,0.00,,OVC,0.00,VWS V14.00,2013-01-05 01:06:00,
2013-01-04 20:11:00,34.1,22.5,30.00,WSW,248,0.0,0.0,62,0.00,,OVC,0.00,VWS V14.00,2013-01-05 01:11:00,
2013-01-04 20:16:00,34.1,22.5,30.00,WSW,248,0.0,0.0,62,0.00,,OVC,0.00,VWS V14.00,2013-01-05 01:16:00,
2013-01-04 20:21:00,34.1,22.5,30.00,WSW,248,2.0,2.0,62,0.00,,OVC,0.00,VWS V14.00,2013-01-05 01:21:00,
2013-01-04 20:26:00,33.9,22.3,30.00,SW,225,0.0,0.0,62,0.00,,OVC,0.00,VWS V14.00,2013-01-05 01:26:00,
2013-01-04 20:31:00,33.9,22.3,30.00,WSW,248,0.0,0.0,62,0.00,,OVC,0.00,VWS V14.00,2013-01-05 01:31:00,
2013-01-04 20:36:00,33.9,22.3,29.99,West,270,0.6,0.6,62,0.00,,OVC,0.00,VWS V14.00,2013-01-05 01:36:00,
2013-01-04 20:41:00,33.8,22.2,29.99,WNW,292,0.0,0.0,62,0.00,,OVC,0.00,VWS V14.00,2013-01-05 01:41:00,
2013-01-04 20:46:00,33.8,22.2,30.00,West,270,0.0,0.0,62,0.00,,OVC,0.00,VWS V14.00,2013-01-05 01:46:00,
2013-01-04 20:51:00,33.9,22.3,30.00,WSW,248,0.0,0.0,62,0.00,,OVC,0.00,VWS V14.00,2013-01-05 01:51:00,
2013-01-04 20:56:00,33.8,22.2,30.00,South,180,4.2,4.2,62,0.00,,OVC,0.00,VWS V14.00,2013-01-05 01:56:00,
2013-01-04 21:01:00,33.8,22.2,30.00,WSW,248,0.0,0.0,62,0.00,,OVC,0.00,VWS V14.00,2013-01-05 02:01:00,
2013-01-04 21:06:00,33.8,22.5,30.00,West,270,0.0,0.0,63,0.00,,OVC,0.00,VWS V14.00,2013-01-05 02:06:00,
2013-01-04 21:11:00,33.8,22.5,30.00,SW,225,2.4,2.4,63,0.00,,OVC,0.00,VWS V14.00,2013-01-05 02:11:00,
2013-01-04 21:16:00,33.9,22.6,30.00,WSW,248,0.0,0.0,63,0.00,,OVC,0.00,VWS V14.00,2013-01-05 02:16:00,
2013-01-04 21:21:00,33.8,22.5,30.00,SW,225,1.7,1.7,63,0.00,,OVC,0.00,VWS V14.00,2013-01-05 02:21:00,
2013-01-04 21:26:00,33.8,22.5,30.00,West,270,3.1,3.1,63,0.00,,OVC,0.00,VWS V14.00,2013-01-05 02:26:00,
2013-01-04 21:31:00,33.8,22.5,30.00,WSW,248,0.0,0.0,63,0.00,,OVC,0.00,VWS V14.00,2013-01-05 02:31:00,
2013-01-04 21:36:00,33.8,22.5,30.01,West,270,0.0,0.0,63,0.00,,OVC,0.00,VWS V14.00,2013-01-05 02:36:00,
2013-01-04 21:41:00,33.8,22.5,30.01,West,270,0.0,0.0,63,0.00,,OVC,0.00,VWS V14.00,2013-01-05 02:41:00,
2013-01-04 21:46:00,33.6,22.4,30.01,WSW,248,2.4,2.4,63,0.00,,OVC,0.00,VWS V14.00,2013-01-05 02:46:00,
2013-01-04 21:51:00,33.8,22.5,30.01,WNW,292,0.0,0.0,63,0.00,,OVC,0.00,VWS V14.00,2013-01-05 02:51:00,
2013-01-04 21:56:00,33.8,22.5,30.01,West,270,1.1,1.1,63,0.00,,OVC,0.00,VWS V14.00,2013-01-05 02:56:00,
2013-01-04 22:01:00,33.8,22.5,30.01,West,270,2.2,2.2,63,0.00,,OVC,0.00,VWS V14.00,2013-01-05 03:01:00,
2013-01-04 22:06:00,33.8,22.5,30.01,SSW,202,0.0,0.0,63,0.00,,OVC,0.00,VWS V14.00,2013-01-05 03:06:00,
2013-01-04 22:11:00,33.8,22.5,30.02,West,270,2.0,2.0,63,0.00,,OVC,0.00,VWS V14.00,2013-01-05 03:11:00,
2013-01-04 22:16:00,33.8,22.2,30.02,West,270,2.4,2.4,62,0.00,,OVC,0.00,VWS V14.00,2013-01-05 03:16:00,
2013-01-04 22:21:00,33.6,22.0,30.02,WSW,248,0.0,0.0,62,0.00,,OVC,0.00,VWS V14.00,2013-01-05 03:21:00,
2013-01-04 22:26:00,33.6,22.0,30.02,NW,315,0.0,0.0,62,0.00,,OVC,0.00,VWS V14.00,2013-01-05 03:26:00,
2013-01-04 22:31:00,33.8,22.2,30.02,West,270,1.3,1.3,62,0.00,,OVC,0.00,VWS V14.00,2013-01-05 03:31:00,
2013-01-04 22:36:00,33.8,22.2,30.02,West,270,1.3,1.3,62,0.00,,OVC,0.00,VWS V14.00,2013-01-05 03:36:00,
2013-01-04 22:41:00,33.9,22.3,30.02,WSW,248,4.0,4.0,62,0.00,,OVC,0.00,VWS V14.00,2013-01-05 03:41:00,
2013-01-04 22:46:00,33.8,22.2,30.03,SW,225,2.6,2.6,62,0.00,,OVC,0.00,VWS V14.00,2013-01-05 03:46:00,
2013-01-04 22:51:00,33.6,22.0,30.03,WSW,248,0.0,0.0,62,0.00,,OVC,0.00,VWS V14.00,2013-01-05 03:51:00,
2013-01-04 22:56:00,33.6,22.0,30.03,SW,225,1.3,1.3,62,0.00,,OVC,0.00,VWS V14.00,2013-01-05 03:56:00,
2013-01-04 23:01:00,33.6,22.0,30.03,WSW,248,0.0,0.0,62,0.00,,OVC,0.00,VWS V14.00,2013-01-05 04:01:00,
2013-01-04 23:06:00,33.4,21.8,30.03,WSW,248,0.0,0.0,62,0.00,,OVC,0.00,VWS V14.00,2013-01-05 04:06:00,
2013-01-04 23:11:00,33.2,21.6,30.03,SW,225,0.0,0.0,62,0.00,,OVC,0.00,VWS V14.00,2013-01-05 04:11:00,
2013-01-04 23:16:00,33.2,21.6,30.03,SSW,202,2.0,2.0,62,0.00,,OVC,0.00,VWS V14.00,2013-01-05 04:16:00,
2013-01-04 23:21:00,33.4,21.8,30.03,WSW,248,0.4,0.4,62,0.00,,OVC,0.00,VWS V14.00,2013-01-05 04:21:00,
2013-01-04 23:26:00,33.2,21.6,30.03,West,270,0.8,1.5,62,0.00,,OVC,0.00,VWS V14.00,2013-01-05 04:26:00,
2013-01-04 23:31:00,33.2,21.6,30.03,West,270,3.1,3.1,62,0.00,,OVC,0.00,VWS V14.00,2013-01-05 04:31:00,
2013-01-04 23:36:00,33.0,21.4,30.03,SW,225,0.0,0.0,62,0.00,,OVC,0.00,VWS V14.00,2013-01-05 04:36:00,
2013-01-04 23:41:00,32.9,21.3,30.03,SW,225,2.2,2.2,62,0.00,,OVC,0.00,VWS V14.00,2013-01-05 04:41:00,
2013-01-04 23:46:00,32.9,21.3,30.03,West,270,0.0,0.0,62,0.00,,OVC,0.00,VWS V14.00,2013-01-05 04:46:00,
2013-01-04 23:51:00,32.9,21.3,30.03,WSW,248,0.0,0.0,62,0.00,,OVC,0.00,VWS V14.00,2013-01-05 04:51:00,
2013-01-04 23:56:00,32.9,21.7,30.04,West,270,0.0,0.0,63,0.00,,OVC,0.00,VWS V14.00,2013-01-05 04:56:00,